Time;durP1;ratioP1;P1;durP2;ratioP2;P2;SDS_P1;SDS_P2;PMS_P1;PMS_P2;Temp;Humidity;BMP_temperature;BMP_pressure;BME280_temperature;BME280_humidity;BME280_pressure;Samples;Min_cycle;Max_cycle;Signal;HPM_P1;HPM_P2
2022/11/10 00:00:19;;;;;;;13.57;3.55;;;9.40;99.90;;;;;;5052803;28;20102;-66
2022/11/10 00:02:46;;;;;;;12.57;3.20;;;9.30;99.90;;;;;;5071084;28;20064;-66
2022/11/10 00:05:13;;;;;;;17.77;4.45;;;9.30;99.90;;;;;;5053142;28;20080;-66
2022/11/10 00:07:39;;;;;;;13.48;3.55;;;9.30;99.90;;;;;;5074285;28;20068;-66
2022/11/10 00:10:06;;;;;;;14.70;3.90;;;9.20;99.90;;;;;;5075177;28;20060;-66
2022/11/10 00:12:33;;;;;;;11.27;3.90;;;9.20;99.90;;;;;;5075067;28;20064;-66
2022/11/10 00:17:44;;;;;;;13.32;4.88;;;9.20;99.90;;;;;;5056895;28;20044;-66
2022/11/10 00:20:11;;;;;;;15.73;5.10;;;9.20;99.90;;;;;;5075168;28;20124;-66
2022/11/10 00:22:38;;;;;;;14.82;4.97;;;9.20;99.90;;;;;;5075095;28;20456;-66
2022/11/10 00:25:05;;;;;;;14.95;4.72;;;9.20;99.90;;;;;;5054757;28;20036;-66
2022/11/10 00:27:33;;;;;;;21.33;6.00;;;9.20;99.90;;;;;;5040244;28;20123;-66
2022/11/10 00:29:59;;;;;;;18.02;4.70;;;9.20;99.90;;;;;;5040028;28;20041;-66
2022/11/10 00:32:25;;;;;;;16.27;4.30;;;9.20;99.90;;;;;;5074520;28;20041;-66
2022/11/10 00:34:51;;;;;;;16.52;4.75;;;9.10;99.90;;;;;;5056627;28;20070;-66
2022/11/10 00:37:17;;;;;;;20.77;4.35;;;9.10;99.90;;;;;;5056446;28;20490;-66
2022/11/10 00:39:43;;;;;;;18.48;4.53;;;9.10;99.90;;;;;;5039901;28;20494;-66
2022/11/10 00:42:09;;;;;;;18.50;4.53;;;9.10;99.90;;;;;;5074496;28;20052;-66
2022/11/10 00:44:35;;;;;;;16.67;4.75;;;9.10;99.90;;;;;;5074372;28;20041;-66
2022/11/10 00:47:00;;;;;;;18.55;5.22;;;9.10;99.90;;;;;;5056329;28;20380;-67
2022/11/10 00:49:26;;;;;;;12.57;4.60;;;9.10;99.90;;;;;;5056422;28;20053;-66
2022/11/10 00:51:53;;;;;;;13.80;4.28;;;9.10;99.90;;;;;;5074340;28;20486;-66
2022/11/10 00:54:18;;;;;;;16.33;4.90;;;9.10;99.90;;;;;;5054075;28;20048;-65
2022/11/10 00:56:44;;;;;;;16.75;5.05;;;9.00;99.90;;;;;;5086827;28;20036;-66
2022/11/10 00:59:10;;;;;;;17.33;6.05;;;9.10;99.90;;;;;;5076207;28;20044;-66
2022/11/10 01:01:36;;;;;;;16.00;4.45;;;9.10;99.90;;;;;;5076310;28;20054;-66
2022/11/10 01:04:02;;;;;;;18.05;4.78;;;9.10;99.90;;;;;;5076206;28;20436;-66
2022/11/10 01:06:28;;;;;;;17.70;4.28;;;9.10;99.90;;;;;;5094459;28;20040;-65
2022/11/10 01:08:54;;;;;;;16.13;4.88;;;9.10;99.90;;;;;;5076003;28;20051;-66
2022/11/10 01:11:24;;;;;;;20.33;5.45;;;9.10;99.90;;;;;;5094144;28;20028;-66
2022/11/10 01:13:51;;;;;;;18.23;5.70;;;9.10;99.90;;;;;;5076176;28;20131;-66
2022/11/10 01:16:23;;;;;;;17.52;4.78;;;9.00;99.90;;;;;;5093986;28;20044;-66
2022/11/10 01:18:56;;;;;;;16.23;4.40;;;9.10;99.90;;;;;;5093214;28;20105;-66
2022/11/10 01:21:24;;;;;;;19.55;4.53;;;9.10;99.90;;;;;;5093967;28;20082;-66
2022/11/10 01:23:50;;;;;;;13.15;4.55;;;9.10;99.90;;;;;;5093911;28;20085;-66
2022/11/10 01:26:17;;;;;;;15.57;4.97;;;9.10;99.90;;;;;;5073696;28;20036;-66
2022/11/10 01:28:43;;;;;;;18.75;5.10;;;9.10;99.90;;;;;;5093788;28;20142;-66
2022/11/10 01:31:15;;;;;;;18.20;4.47;;;9.10;99.90;;;;;;5075861;28;20126;-66
2022/11/10 01:33:41;;;;;;;13.60;5.03;;;9.10;99.90;;;;;;5075627;28;20035;-66
2022/11/10 01:36:08;;;;;;;20.23;4.28;;;9.10;99.90;;;;;;5075392;28;20438;-66
2022/11/10 01:38:35;;;;;;;16.60;4.70;;;9.00;99.90;;;;;;5093819;28;20390;-66
2022/11/10 01:41:03;;;;;;;21.08;5.20;;;9.10;99.90;;;;;;5059023;28;20040;-66
2022/11/10 01:43:30;;;;;;;19.08;5.15;;;9.10;99.90;;;;;;5093459;28;20039;-66
2022/11/10 01:46:07;;;;;;;14.90;3.78;;;9.10;99.90;;;;;;5075657;28;20036;-66
2022/11/10 01:48:51;;;;;;;18.98;5.13;;;9.10;99.90;;;;;;5093261;28;20043;-66
2022/11/10 01:51:21;;;;;;;15.55;4.82;;;9.10;99.90;;;;;;5093481;28;20028;-66
2022/11/10 01:53:56;;;;;;;;;;;9.10;99.90;;;;;;5093798;28;20131;-66
2022/11/10 01:56:24;;;;;;;16.40;4.95;;;9.10;99.90;;;;;;5064138;28;19920;-66
2022/11/10 01:58:57;;;;;;;15.45;5.20;;;9.10;99.90;;;;;;5073136;28;20040;-66
2022/11/10 02:01:24;;;;;;;21.33;4.47;;;9.10;99.90;;;;;;5054947;28;20051;-66
2022/11/10 02:03:54;;;;;;;13.38;4.50;;;9.10;99.90;;;;;;5055206;28;20076;-66
2022/11/10 02:06:24;;;;;;;15.45;4.60;;;9.10;99.90;;;;;;5072672;28;20040;-66
2022/11/10 02:08:51;;;;;;;17.83;4.72;;;9.10;99.90;;;;;;5072889;28;20036;-66
2022/11/10 02:11:17;;;;;;;19.17;4.80;;;9.10;99.90;;;;;;5054704;28;20045;-66
2022/11/10 02:13:42;;;;;;;23.92;4.60;;;9.20;99.90;;;;;;5072637;28;20078;-66
2022/11/10 02:16:09;;;;;;;19.42;4.75;;;9.20;99.90;;;;;;5037962;28;20120;-66
2022/11/10 02:18:36;;;;;;;12.40;4.80;;;9.20;99.90;;;;;;5072552;28;20040;-66
2022/11/10 02:21:07;;;;;;;15.90;4.43;;;9.20;99.90;;;;;;5054509;28;20056;-66
2022/11/10 02:23:36;;;;;;;18.88;5.30;;;9.20;99.90;;;;;;5072689;28;20048;-66
2022/11/10 02:26:04;;;;;;;13.48;4.20;;;9.30;99.90;;;;;;5035767;28;20136;-66
2022/11/10 02:28:34;;;;;;;18.90;4.80;;;9.30;99.90;;;;;;5072233;28;20079;-66
2022/11/10 02:31:00;;;;;;;18.75;5.18;;;9.30;99.90;;;;;;5054371;28;20040;-66
2022/11/10 02:33:26;;;;;;;14.32;5.35;;;9.30;99.90;;;;;;5054041;28;20068;-66
2022/11/10 02:35:52;;;;;;;18.33;5.70;;;9.30;99.90;;;;;;5054317;28;20103;-66
2022/11/10 02:38:18;;;;;;;14.95;4.45;;;9.30;99.90;;;;;;5072172;28;20055;-66
2022/11/10 02:40:43;;;;;;;16.60;5.00;;;9.30;99.90;;;;;;5054252;28;20072;-66
2022/11/10 02:43:12;;;;;;;14.07;4.18;;;9.40;99.90;;;;;;5072302;28;20135;-66
2022/11/10 02:45:41;;;;;;;15.75;3.80;;;9.40;99.90;;;;;;5071983;28;20036;-66
2022/11/10 02:48:10;;;;;;;21.23;4.82;;;9.40;99.90;;;;;;5054048;28;20170;-66
2022/11/10 02:50:37;;;;;;;14.45;4.13;;;9.40;99.90;;;;;;5072276;28;20079;-66
2022/11/10 02:53:03;;;;;;;15.88;4.03;;;9.50;99.90;;;;;;5071809;28;20455;-66
2022/11/10 02:55:29;;;;;;;21.00;4.72;;;9.50;99.90;;;;;;5053995;28;20043;-66
2022/11/10 02:57:54;;;;;;;18.23;4.82;;;9.40;99.90;;;;;;5074043;28;20043;-66
2022/11/10 03:00:20;;;;;;;19.48;4.50;;;9.50;99.90;;;;;;5073859;28;20090;-66
2022/11/10 03:02:46;;;;;;;14.25;4.57;;;9.40;99.90;;;;;;5073735;28;20130;-66
2022/11/10 03:05:12;;;;;;;17.70;5.30;;;9.40;99.90;;;;;;5092226;28;20046;-66
2022/11/10 03:07:38;;;;;;;19.42;6.47;;;9.40;99.90;;;;;;5073475;28;20050;-66
2022/11/10 03:10:05;;;;;;;20.67;5.25;;;9.40;99.90;;;;;;5073813;28;20066;-67
2022/11/10 03:12:31;;;;;;;17.77;5.72;;;9.40;99.90;;;;;;5073674;28;20070;-66
2022/11/10 03:14:57;;;;;;;19.60;5.47;;;9.40;99.90;;;;;;5073395;28;20047;-66
2022/11/10 03:17:23;;;;;;;18.13;5.55;;;9.40;99.90;;;;;;5073580;28;20047;-66
2022/11/10 03:19:49;;;;;;;16.70;5.22;;;9.30;99.90;;;;;;5091926;28;20043;-66
2022/11/10 03:22:14;;;;;;;22.17;6.57;;;9.30;99.90;;;;;;5073517;28;20059;-66
2022/11/10 03:24:40;;;;;;;26.70;5.85;;;9.30;99.90;;;;;;5071593;28;20048;-66
2022/11/10 03:27:06;;;;;;;22.02;5.93;;;9.30;99.90;;;;;;5073643;28;20028;-66
2022/11/10 03:29:31;;;;;;;23.58;6.30;;;9.30;99.90;;;;;;5091593;28;20043;-66
2022/11/10 03:31:57;;;;;;;20.40;5.50;;;9.30;99.90;;;;;;5091485;28;20088;-66
2022/11/10 03:34:23;;;;;;;17.67;6.40;;;9.30;99.90;;;;;;5073122;28;20032;-66
2022/11/10 03:36:50;;;;;;;21.80;7.10;;;9.30;99.90;;;;;;5090394;28;20044;-66
2022/11/10 03:39:16;;;;;;;18.58;6.03;;;9.30;99.90;;;;;;5073512;28;20036;-66
2022/11/10 03:41:41;;;;;;;24.63;6.80;;;9.30;99.90;;;;;;5089673;28;20390;-66
2022/11/10 03:44:07;;;;;;;18.33;6.30;;;9.30;99.90;;;;;;5091409;28;20059;-66
2022/11/10 03:46:33;;;;;;;19.02;6.95;;;9.30;99.90;;;;;;5091304;28;20047;-66
2022/11/10 03:48:58;;;;;;;28.88;6.95;;;9.30;99.90;;;;;;5073393;28;20040;-66
2022/11/10 03:51:24;;;;;;;18.77;6.20;;;9.30;99.90;;;;;;5056425;28;20589;-66
2022/11/10 03:53:50;;;;;;;26.50;6.22;;;9.30;99.90;;;;;;5091481;28;20075;-67
2022/11/10 03:56:16;;;;;;;17.23;5.78;;;9.40;99.90;;;;;;5087671;28;20098;-66
2022/11/10 03:58:41;;;;;;;13.27;5.50;;;9.40;99.90;;;;;;5089811;28;20059;-66
2022/11/10 04:01:08;;;;;;;19.92;5.13;;;9.40;99.90;;;;;;5056558;28;20123;-66
2022/11/10 04:03:33;;;;;;;22.50;5.78;;;9.50;99.90;;;;;;5073087;28;20119;-66
2022/11/10 04:08:59;;;;;;;23.23;6.55;;;9.40;99.90;;;;;;5091222;28;20044;-66
2022/11/10 04:16:58;;;;;;;19.30;5.32;;;9.30;99.90;;;;;;5072968;28;20040;-66
2022/11/10 04:19:23;;;;;;;16.45;5.40;;;9.30;99.90;;;;;;5091095;28;20177;-66
2022/11/10 04:21:50;;;;;;;29.75;5.97;;;9.30;99.90;;;;;;5072979;28;20186;-67
2022/11/10 04:24:15;;;;;;;19.80;5.97;;;9.30;99.90;;;;;;5070985;28;20047;-66
2022/11/10 04:26:42;;;;;;;15.57;5.13;;;9.40;99.90;;;;;;5073119;28;20386;-66
2022/11/10 04:29:09;;;;;;;19.42;5.25;;;9.40;99.90;;;;;;5072683;28;20048;-66
2022/11/10 04:31:38;;;;;;;20.83;4.90;;;9.40;99.90;;;;;;5091122;28;20064;-66
2022/11/10 04:34:10;;;;;;;23.27;4.95;;;9.40;99.90;;;;;;5090987;28;20047;-66
2022/11/10 04:36:37;;;;;;;23.90;6.53;;;9.50;99.90;;;;;;5072614;28;20052;-66
2022/11/10 04:39:05;;;;;;;18.75;5.00;;;9.50;99.90;;;;;;5090915;28;20047;-66
2022/11/10 04:41:31;;;;;;;13.95;5.15;;;9.50;99.90;;;;;;5055780;28;20076;-66
2022/11/10 04:43:58;;;;;;;23.85;5.32;;;9.50;99.90;;;;;;5090897;28;20115;-67
2022/11/10 04:46:25;;;;;;;14.07;4.90;;;9.50;99.90;;;;;;5090871;28;20051;-67
2022/11/10 04:48:52;;;;;;;19.33;4.97;;;9.50;99.90;;;;;;5090684;28;20036;-67
2022/11/10 04:51:20;;;;;;;21.77;4.88;;;9.50;99.90;;;;;;5090710;28;20119;-66
2022/11/10 04:53:46;;;;;;;29.13;5.55;;;9.50;99.90;;;;;;5092373;28;20032;-66
2022/11/10 04:56:16;;;;;;;28.27;5.35;;;9.50;99.90;;;;;;5073889;28;20056;-67
2022/11/10 04:58:42;;;;;;;18.48;5.50;;;9.50;99.90;;;;;;5094395;28;20498;-67
2022/11/10 05:01:14;;;;;;;15.07;4.63;;;9.50;99.90;;;;;;5075956;28;20071;-67
2022/11/10 05:03:40;;;;;;;28.92;5.38;;;9.60;99.90;;;;;;5076105;28;20058;-67
2022/11/10 05:06:06;;;;;;;23.55;5.95;;;9.50;99.90;;;;;;5076438;28;20043;-67
2022/11/10 05:08:32;;;;;;;21.58;4.63;;;9.60;99.90;;;;;;5094349;28;20407;-66
2022/11/10 05:10:57;;;;;;;21.42;4.68;;;9.60;99.90;;;;;;5075933;28;20046;-66
2022/11/10 05:13:23;;;;;;;21.58;4.90;;;9.60;99.90;;;;;;5076166;28;20042;-67
2022/11/10 05:15:49;;;;;;;25.70;6.05;;;9.60;99.90;;;;;;5092808;28;20051;-66
2022/11/10 05:18:14;;;;;;;14.63;4.90;;;9.60;99.90;;;;;;5094060;28;20040;-66
2022/11/10 05:20:40;;;;;;;25.45;4.78;;;9.70;99.90;;;;;;5075828;28;20059;-66
2022/11/10 05:25:50;;;;;;;24.88;5.15;;;9.70;99.90;;;;;;5091789;28;20046;-66
2022/11/10 05:28:16;;;;;;;27.13;5.38;;;9.80;99.90;;;;;;5075618;28;20054;-67
2022/11/10 05:30:42;;;;;;;19.02;5.22;;;9.80;99.90;;;;;;5075655;28;20040;-67
2022/11/10 05:33:10;;;;;;;24.10;4.53;;;9.70;99.90;;;;;;5075625;28;20092;-67
2022/11/10 05:35:36;;;;;;;18.75;4.65;;;9.70;99.90;;;;;;5093906;28;20059;-67
2022/11/10 05:38:03;;;;;;;13.70;4.13;;;9.70;99.90;;;;;;5093622;28;20082;-66
2022/11/10 05:40:29;;;;;;;17.35;4.30;;;9.70;99.90;;;;;;5075456;28;20039;-67
2022/11/10 05:42:55;;;;;;;18.52;5.50;;;9.70;99.90;;;;;;5075388;28;20051;-67
2022/11/10 05:45:23;;;;;;;19.20;4.68;;;9.60;99.90;;;;;;5075544;28;20044;-66
2022/11/10 05:47:49;;;;;;;24.30;5.22;;;9.60;99.90;;;;;;5093644;28;20044;-66
2022/11/10 05:50:16;;;;;;;29.33;5.05;;;9.60;99.90;;;;;;5075254;28;20036;-67
2022/11/10 05:52:44;;;;;;;21.13;5.07;;;9.60;99.90;;;;;;5093407;28;20036;-67
2022/11/10 05:55:11;;;;;;;23.33;5.65;;;9.60;99.90;;;;;;5091134;28;20036;-66
2022/11/10 05:57:37;;;;;;;20.63;4.97;;;9.60;99.90;;;;;;5074998;28;20520;-66
2022/11/10 06:00:04;;;;;;;15.82;5.13;;;9.60;99.90;;;;;;5074892;28;20149;-66
2022/11/10 06:02:30;;;;;;;20.40;5.00;;;9.60;99.90;;;;;;5074966;28;20123;-66
2022/11/10 06:04:55;;;;;;;24.58;5.38;;;9.60;99.90;;;;;;5074716;28;20197;-67
2022/11/10 06:07:21;;;;;;;16.38;5.30;;;9.60;99.90;;;;;;5075168;28;20480;-67
2022/11/10 06:09:47;;;;;;;23.02;6.32;;;9.60;99.90;;;;;;5058278;28;20129;-66
2022/11/10 06:12:13;;;;;;;28.52;5.75;;;9.60;99.90;;;;;;5074777;28;20043;-65
2022/11/10 06:14:39;;;;;;;20.67;5.13;;;9.50;99.90;;;;;;5074809;28;20063;-67
2022/11/10 06:17:05;;;;;;;24.67;5.95;;;9.50;99.90;;;;;;5074738;28;20148;-67
2022/11/10 06:19:30;;;;;;;21.05;6.03;;;9.50;99.90;;;;;;5092969;28;20044;-65
2022/11/10 06:21:56;;;;;;;28.48;6.55;;;9.50;99.90;;;;;;5074688;28;20390;-66
2022/11/10 06:24:22;;;;;;;25.55;5.47;;;9.50;99.90;;;;;;5072374;28;20150;-66
2022/11/10 06:26:47;;;;;;;22.08;6.07;;;9.50;99.90;;;;;;5074758;28;20044;-66
2022/11/10 06:29:13;;;;;;;26.98;7.40;;;9.50;99.90;;;;;;5074368;28;20040;-66
2022/11/10 06:31:39;;;;;;;16.55;4.47;;;9.50;99.90;;;;;;5092608;28;20036;-67
2022/11/10 06:34:05;;;;;;;27.02;5.78;;;9.50;99.90;;;;;;5074405;28;20067;-66
2022/11/10 06:36:31;;;;;;;21.83;6.05;;;9.50;99.90;;;;;;5074200;28;20078;-66
2022/11/10 06:38:57;;;;;;;25.77;5.75;;;9.50;99.90;;;;;;5074559;28;20492;-67
2022/11/10 06:41:22;;;;;;;17.55;4.95;;;9.50;99.90;;;;;;5092542;28;20032;-66
2022/11/10 06:43:48;;;;;;;18.55;5.43;;;9.40;99.90;;;;;;5074130;28;20040;-66
2022/11/10 06:46:14;;;;;;;20.98;5.22;;;9.40;99.90;;;;;;5074118;28;20044;-66
2022/11/10 06:48:39;;;;;;;19.42;5.18;;;9.40;99.90;;;;;;5074274;28;20067;-66
2022/11/10 06:51:05;;;;;;;20.60;5.38;;;9.40;99.90;;;;;;5092383;28;20690;-67
2022/11/10 06:53:31;;;;;;;23.42;6.18;;;9.40;99.90;;;;;;5057426;28;20041;-66
2022/11/10 06:55:57;;;;;;;20.88;4.93;;;9.40;99.90;;;;;;5071707;28;20087;-67
2022/11/10 06:58:23;;;;;;;17.48;4.43;;;9.40;99.90;;;;;;5092028;28;20071;-66
2022/11/10 07:00:48;;;;;;;20.23;5.20;;;9.40;99.90;;;;;;5091890;28;20541;-66
2022/11/10 07:03:14;;;;;;;23.27;5.40;;;9.50;99.90;;;;;;5091408;28;20036;-66
2022/11/10 07:05:41;;;;;;;26.77;5.63;;;9.50;99.90;;;;;;5084742;28;20134;-66
2022/11/10 07:08:14;;;;;;;21.92;6.22;;;9.50;99.90;;;;;;5077504;28;20071;-66
2022/11/10 07:10:41;;;;;;;19.63;5.50;;;9.50;99.90;;;;;;5037272;28;20037;-66
2022/11/10 07:13:09;;;;;;;20.05;5.32;;;9.50;99.90;;;;;;5066877;28;20044;-66
2022/11/10 07:15:35;;;;;;;21.10;5.50;;;9.50;99.90;;;;;;5073281;28;20083;-66
2022/11/10 07:18:02;;;;;;;23.05;6.82;;;9.50;99.90;;;;;;5091831;28;20035;-66
2022/11/10 07:20:29;;;;;;;25.35;6.10;;;9.60;99.90;;;;;;5056824;28;20128;-66
2022/11/10 07:22:59;;;;;;;21.95;5.65;;;9.60;99.90;;;;;;5088203;28;20454;-66
2022/11/10 07:25:25;;;;;;;25.58;5.97;;;9.60;99.90;;;;;;5051147;28;20124;-66
2022/11/10 07:27:55;;;;;;;14.57;5.30;;;9.70;99.90;;;;;;5071492;28;20174;-67
2022/11/10 07:30:21;;;;;;;28.98;7.32;;;9.70;99.90;;;;;;5053416;28;20529;-66
2022/11/10 07:32:55;;;;;;;24.83;6.07;;;9.70;99.90;;;;;;5053496;28;20109;-67
2022/11/10 07:35:21;;;;;;;18.35;6.03;;;9.70;99.90;;;;;;5053217;28;20123;-66
2022/11/10 07:37:47;;;;;;;27.05;6.75;;;9.60;99.90;;;;;;5053075;28;20131;-66
2022/11/10 07:40:12;;;;;;;20.48;6.13;;;9.60;99.90;;;;;;5053259;28;20040;-67
2022/11/10 07:42:39;;;;;;;17.05;5.50;;;9.60;99.90;;;;;;5053251;28;20615;-66
2022/11/10 07:45:05;;;;;;;23.45;5.75;;;9.70;99.90;;;;;;5071363;28;20037;-67
2022/11/10 07:47:31;;;;;;;19.77;5.97;;;9.60;99.90;;;;;;5052361;28;20097;-67
2022/11/10 07:49:58;;;;;;;22.77;6.75;;;9.70;99.90;;;;;;5091032;28;20111;-66
2022/11/10 07:52:23;;;;;;;19.00;5.55;;;9.70;99.90;;;;;;5073214;28;20089;-66
2022/11/10 07:54:49;;;;;;;22.88;6.70;;;9.80;99.90;;;;;;5054214;28;20131;-66
2022/11/10 07:57:15;;;;;;;20.33;6.53;;;9.90;99.90;;;;;;5072990;28;20052;-66
2022/11/10 07:59:40;;;;;;;23.48;6.75;;;10.00;99.90;;;;;;5072959;28;20051;-66
2022/11/10 08:02:10;;;;;;;17.65;6.15;;;10.10;99.90;;;;;;5072977;28;20058;-66
2022/11/10 08:04:35;;;;;;;18.63;5.40;;;10.30;99.90;;;;;;5091320;28;20040;-67
2022/11/10 08:07:01;;;;;;;20.17;5.40;;;10.40;99.90;;;;;;5072935;28;20432;-67
2022/11/10 08:09:27;;;;;;;17.35;5.30;;;10.60;99.90;;;;;;5072817;28;20123;-67
2022/11/10 08:11:52;;;;;;;18.38;5.38;;;10.80;99.90;;;;;;5072309;28;20044;-67
2022/11/10 08:14:18;;;;;;;18.38;5.13;;;11.10;99.90;;;;;;5072804;28;20046;-67
2022/11/10 08:16:44;;;;;;;17.67;4.30;;;11.40;99.90;;;;;;5090947;28;20032;-66
2022/11/10 08:19:10;;;;;;;19.48;4.82;;;11.80;99.90;;;;;;5090906;28;20595;-67
2022/11/10 08:21:35;;;;;;;13.63;4.38;;;12.00;99.90;;;;;;5072726;28;20551;-66
2022/11/10 08:24:01;;;;;;;16.05;5.30;;;12.00;99.90;;;;;;5090346;28;20093;-67
2022/11/10 08:26:27;;;;;;;18.42;5.25;;;12.00;99.90;;;;;;5089442;28;20098;-67
2022/11/10 08:28:53;;;;;;;15.05;5.75;;;12.00;99.90;;;;;;5076252;28;20051;-66
2022/11/10 08:31:19;;;;;;;15.57;5.00;;;12.10;99.90;;;;;;5076645;28;20046;-67
2022/11/10 08:33:45;;;;;;;19.73;5.30;;;12.00;99.90;;;;;;5076591;28;20067;-67
2022/11/10 08:36:10;;;;;;;17.42;4.88;;;11.90;99.90;;;;;;5076604;28;20075;-67
2022/11/10 08:38:36;;;;;;;17.35;5.40;;;11.90;99.90;;;;;;5076593;28;20118;-67
2022/11/10 08:41:02;;;;;;;18.85;6.15;;;11.80;99.90;;;;;;5095030;28;20097;-67
2022/11/10 08:43:28;;;;;;;15.93;5.15;;;11.80;99.90;;;;;;5076431;28;20524;-67
2022/11/10 08:45:57;;;;;;;17.55;6.00;;;11.80;99.90;;;;;;5076406;28;20040;-67
2022/11/10 08:48:23;;;;;;;14.15;5.35;;;11.80;99.90;;;;;;5094523;28;20119;-68
2022/11/10 08:50:50;;;;;;;12.38;4.85;;;11.80;99.90;;;;;;5076413;28;20098;-67
2022/11/10 08:53:22;;;;;;;19.98;5.88;;;11.90;99.90;;;;;;5076307;28;20093;-68
2022/11/10 08:55:48;;;;;;;20.73;5.93;;;12.00;99.90;;;;;;5069217;28;20060;-67
2022/11/10 08:58:20;;;;;;;19.65;4.70;;;12.20;99.90;;;;;;5074365;28;20040;-67
2022/11/10 09:00:46;;;;;;;16.90;6.45;;;12.40;99.90;;;;;;5074128;28;20091;-67
2022/11/10 09:03:21;;;;;;;22.95;5.82;;;12.60;99.90;;;;;;5074059;28;20040;-68
2022/11/10 09:05:48;;;;;;;16.90;4.80;;;12.70;99.90;;;;;;5074068;28;20082;-67
2022/11/10 09:08:14;;;;;;;16.20;4.47;;;12.90;99.90;;;;;;5056237;28;20044;-67
2022/11/10 09:10:45;;;;;;;19.08;4.57;;;13.30;99.90;;;;;;5074090;28;20062;-67
2022/11/10 09:13:13;;;;;;;19.45;4.22;;;13.70;99.90;;;;;;5073734;28;20487;-68
2022/11/10 09:15:40;;;;;;;18.88;4.80;;;14.10;99.90;;;;;;5055888;28;20478;-67
2022/11/10 09:18:11;;;;;;;21.52;4.70;;;14.10;99.90;;;;;;5055948;28;20048;-67
2022/11/10 09:20:37;;;;;;;17.65;5.25;;;14.10;99.90;;;;;;5055831;28;20071;-67
2022/11/10 09:23:10;;;;;;;16.60;4.35;;;14.30;99.90;;;;;;5055732;28;20044;-67
2022/11/10 09:25:36;;;;;;;17.35;4.45;;;14.50;99.90;;;;;;5071601;28;20098;-67
2022/11/10 09:28:01;;;;;;;18.85;5.00;;;14.70;99.90;;;;;;5055894;28;20080;-68
2022/11/10 09:30:27;;;;;;;13.57;4.35;;;14.70;99.90;;;;;;5055710;28;20470;-67
2022/11/10 09:32:58;;;;;;;17.35;4.45;;;14.70;99.90;;;;;;5073531;28;20037;-68
2022/11/10 09:35:24;;;;;;;15.82;4.13;;;14.60;99.90;;;;;;5073524;28;20498;-67
2022/11/10 09:37:50;;;;;;;14.88;4.28;;;14.30;99.90;;;;;;5073594;28;20445;-67
2022/11/10 09:40:42;;;;;;;19.20;4.80;;;13.90;99.90;;;;;;5070142;28;20040;-68
2022/11/10 09:43:13;;;;;;;12.57;4.00;;;13.80;99.90;;;;;;5026713;28;20057;-67
2022/11/10 09:45:42;;;;;;;16.75;4.45;;;14.00;99.90;;;;;;5073588;28;20052;-67
2022/11/10 09:48:28;;;;;;;15.25;4.57;;;14.50;99.90;;;;;;5055150;28;20036;-69
2022/11/10 09:51:04;;;;;;;19.73;3.97;;;14.90;99.90;;;;;;5038858;28;20033;-69
2022/11/10 09:53:40;;;;;;;15.93;4.50;;;15.40;99.90;;;;;;5055319;28;20050;-69
2022/11/10 09:56:10;;;;;;;15.02;3.63;;;15.80;99.90;;;;;;5060152;28;20040;-71
2022/11/10 09:58:45;;;;;;;15.60;4.20;;;16.20;99.90;;;;;;5075139;28;20478;-68
2022/11/10 10:01:29;;;;;;;17.17;4.53;;;16.30;99.90;;;;;;5075039;28;20497;-69
2022/11/10 10:04:11;;;;;;;15.82;4.00;;;16.40;99.90;;;;;;5056211;28;20036;-67
2022/11/10 10:06:53;;;;;;;14.73;4.20;;;16.10;99.90;;;;;;5093050;28;20510;-68
2022/11/10 10:09:52;;;;;;;19.08;4.55;;;15.60;99.90;;;;;;5074768;28;20044;-68
2022/11/10 10:12:36;;;;;;;15.15;4.28;;;15.00;99.90;;;;;;5074791;28;20052;-68
2022/11/10 10:15:22;;;;;;;15.63;4.65;;;14.80;99.90;;;;;;5092971;28;20505;-68
2022/11/10 10:17:57;;;;;;;18.67;4.10;;;14.50;99.90;;;;;;5092162;28;20527;-68
2022/11/10 10:20:50;;;;;;;18.83;4.35;;;14.60;99.90;;;;;;5091657;28;20089;-68
2022/11/10 10:23:19;;;;;;;18.27;4.40;;;14.70;99.90;;;;;;5074865;28;20104;-68
2022/11/10 10:25:45;;;;;;;13.27;3.80;;;14.80;99.90;;;;;;5090733;28;20036;-68
2022/11/10 10:28:36;;;;;;;17.35;4.38;;;14.80;99.90;;;;;;5092878;28;20082;-68
2022/11/10 10:31:14;;;;;;;18.25;4.25;;;14.80;99.90;;;;;;5092673;28;20061;-68
2022/11/10 10:33:40;;;;;;;16.52;3.42;;;14.70;99.90;;;;;;5074409;28;20093;-68
2022/11/10 10:36:13;;;;;;;15.88;4.05;;;14.70;99.90;;;;;;5092673;28;20040;-67
2022/11/10 10:38:44;;;;;;;15.77;3.42;;;14.70;99.90;;;;;;5074544;28;20051;-68
2022/11/10 10:41:25;;;;;;;16.92;3.72;;;14.60;99.90;;;;;;5074229;28;20048;-67
2022/11/10 10:43:54;;;;;;;16.30;3.70;;;14.40;99.90;;;;;;5092385;28;20040;-67
2022/11/10 10:46:25;;;;;;;18.37;3.77;;;14.30;99.90;;;;;;5074507;28;20051;-68
2022/11/10 10:49:16;;;;;;;17.08;3.55;;;14.30;99.90;;;;;;5092268;28;20036;-67
2022/11/10 10:51:42;;;;;;;23.92;5.03;;;14.20;99.90;;;;;;5092305;28;20032;-68
2022/11/10 10:54:38;;;;;;;21.38;4.32;;;14.30;99.90;;;;;;5073398;28;20066;-68
2022/11/10 10:57:28;;;;;;;16.45;3.72;;;14.40;99.90;;;;;;5074463;28;20517;-68
2022/11/10 11:00:19;;;;;;;18.27;4.40;;;14.40;99.90;;;;;;5074166;28;20078;-68
2022/11/10 11:03:07;;;;;;;18.48;3.83;;;14.40;99.90;;;;;;5057513;28;20185;-68
2022/11/10 11:05:33;;;;;;;15.70;3.17;;;14.40;99.90;;;;;;5056518;28;20635;-68
2022/11/10 11:08:01;;;;;;;17.83;4.13;;;14.80;99.90;;;;;;5073625;28;20130;-69
2022/11/10 11:10:32;;;;;;;11.20;2.88;;;14.90;99.90;;;;;;5091803;28;20040;-68
2022/11/10 11:13:20;;;;;;;13.30;2.80;;;14.80;99.90;;;;;;5091677;28;20118;-67
2022/11/10 11:15:59;;;;;;;18.10;3.00;;;14.70;99.90;;;;;;5073669;28;20123;-68
2022/11/10 11:18:27;;;;;;;16.13;3.03;;;14.70;99.90;;;;;;5091908;28;20040;-67
2022/11/10 11:21:02;;;;;;;14.25;3.42;;;14.80;99.90;;;;;;5091864;28;20040;-67
2022/11/10 11:23:33;;;;;;;12.05;2.75;;;15.00;99.90;;;;;;5071185;28;20055;-67
2022/11/10 11:26:18;;;;;;;15.05;3.42;;;14.90;99.90;;;;;;5034942;28;20037;-67
2022/11/10 11:28:51;;;;;;;14.95;3.30;;;14.90;99.90;;;;;;5053276;28;20071;-68
2022/11/10 11:31:36;;;;;;;12.00;2.75;;;14.70;99.90;;;;;;5071234;28;20047;-67
2022/11/10 11:34:31;;;;;;;16.75;3.30;;;14.50;99.90;;;;;;5071894;28;20043;-68
2022/11/10 11:37:06;;;;;;;19.80;3.40;;;14.40;99.90;;;;;;5091666;28;20627;-67
2022/11/10 11:40:11;;;;;;;12.00;3.72;;;14.20;99.90;;;;;;5073196;28;20050;-67
2022/11/10 11:42:40;;;;;;;19.40;3.20;;;14.10;99.90;;;;;;5070331;28;20063;-67
2022/11/10 11:45:12;;;;;;;13.20;2.65;;;14.00;99.90;;;;;;5073570;28;20042;-68
2022/11/10 11:47:56;;;;;;;16.17;4.32;;;13.90;99.90;;;;;;5073202;28;20054;-67
2022/11/10 11:50:59;;;;;;;15.15;2.80;;;13.80;99.90;;;;;;5056432;28;20423;-67
2022/11/10 11:53:33;;;;;;;18.10;3.05;;;13.80;99.90;;;;;;5091318;28;20562;-66
2022/11/10 11:56:13;;;;;;;13.15;2.95;;;13.70;99.90;;;;;;5070886;28;20764;-67
2022/11/10 11:58:51;;;;;;;13.60;2.35;;;13.70;99.90;;;;;;5073065;28;20534;-68
2022/11/10 12:01:17;;;;;;;16.08;2.95;;;13.70;99.90;;;;;;5073155;28;20077;-68
2022/11/10 12:03:54;;;;;;;15.02;2.90;;;13.70;99.90;;;;;;5072737;28;20048;-68
2022/11/10 12:06:47;;;;;;;17.80;2.72;;;13.80;99.90;;;;;;5091164;28;20044;-67
2022/11/10 12:09:41;;;;;;;13.30;3.38;;;13.80;99.90;;;;;;5091019;28;20044;-67
2022/11/10 12:12:12;;;;;;;18.30;3.28;;;13.80;99.90;;;;;;5056222;28;20036;-67
2022/11/10 12:15:10;;;;;;;18.75;3.72;;;13.80;99.90;;;;;;5091236;28;20047;-67
2022/11/10 12:17:48;;;;;;;13.27;2.95;;;13.80;99.90;;;;;;5056233;28;20078;-67
2022/11/10 12:20:34;;;;;;;18.17;3.50;;;13.90;99.90;;;;;;5073313;28;20047;-67
2022/11/10 12:23:27;;;;;;;12.00;2.13;;;14.00;99.90;;;;;;5090899;28;20493;-67
2022/11/10 12:26:14;;;;;;;16.35;2.75;;;14.00;99.90;;;;;;5088699;28;20044;-67
2022/11/10 12:28:51;;;;;;;15.50;2.85;;;14.10;99.90;;;;;;5072695;28;20044;-67
2022/11/10 12:31:20;;;;;;;19.48;3.50;;;14.10;99.90;;;;;;5091069;28;20029;-68
2022/11/10 12:33:56;;;;;;;10.65;2.88;;;14.10;99.90;;;;;;5072828;28;20039;-67
2022/11/10 12:36:23;;;;;;;17.83;3.50;;;14.10;99.90;;;;;;5090775;28;20037;-68
2022/11/10 12:39:19;;;;;;;17.40;2.92;;;14.10;99.90;;;;;;5090895;28;20048;-67
2022/11/10 12:41:49;;;;;;;18.45;3.38;;;14.10;99.90;;;;;;5072779;28;20542;-67
2022/11/10 12:44:31;;;;;;;14.68;2.65;;;14.10;99.90;;;;;;5090928;28;20043;-68
2022/11/10 12:47:01;;;;;;;18.35;2.83;;;14.10;99.90;;;;;;5090826;28;20112;-67
2022/11/10 12:49:30;;;;;;;;;;;14.10;99.90;;;;;;5091328;28;20511;-67
2022/11/10 12:52:04;;;;;;;11.10;3.05;;;14.10;99.90;;;;;;5056281;28;19994;-67
2022/11/10 12:54:34;;;;;;;12.63;2.70;;;14.10;99.90;;;;;;5070607;28;20044;-67
2022/11/10 12:57:10;;;;;;;13.70;3.00;;;14.10;99.90;;;;;;5072438;28;20517;-67
2022/11/10 12:59:39;;;;;;;13.88;3.13;;;14.10;99.90;;;;;;5055735;28;20129;-67
2022/11/10 13:02:21;;;;;;;15.02;3.35;;;14.20;99.90;;;;;;5072486;28;20040;-67
2022/11/10 13:05:11;;;;;;;15.35;2.85;;;14.20;99.90;;;;;;5090614;28;20051;-66
2022/11/10 13:07:37;;;;;;;;;;;14.30;99.90;;;;;;5066823;28;20040;-67
2022/11/10 13:10:18;;;;;;;15.00;3.08;;;14.20;99.90;;;;;;5072347;28;19920;-67